Pagrindinis puslapis
METAR-TAF:

METAR-TAF

Oro uostai :

Buochs, Šveicarija

platuma: 46-58-28N, ilguma: 8-23-49E, Aukštis: 449 m

Dabartinis oras

Ataskaita buvo paskelbta 31 minutes, ne 07:50 UTC
Vėjas 4 kt iš Vakarų, svyruoja nuo Pietvakarių ir Vakarų/Šiaurės Vakarų
Temperatūra -5°C
Drėgmė 86%
Slėgis 1022 hPa
Matomumas 10 km arba daugiau
nėra debesų žemiau 1500 m ir nėra kamuolinių lietaus debesų

METAR: LSZC 190750Z AUTO 26004KT 230V290 CAVOK M05/M07 Q1022

Laikas: 09:21 (08:21 UTC)

Prognozė

Ataskaita buvo paskelbta 2 valandos ir 56 minutes, ne 05:25 UTC
Prognozė galioja nuo 19 metu 06 UTC su 19 metu 15 UTC
Vėjas 3 kt iš Pietvakarių
Matomumas 10 km arba daugiau
nėra debesų žemiau 1500 m ir nėra kamuolinių lietaus debesų
Laikinai
nuo 19 metu 10 UTC su 19 metu 15 UTC
Matomumas 10 km arba daugiau
Mažai debesys ne aukštis 10000 ft

TAF: LSZC 190525Z 1906/1915 23003KT CAVOK TEMPO 1910/1915 9999 FEW100

Orai ataskaitas ir orų prognozės (METAR, TAF).

turimą stotys yra geltonos ir raudonos taškus žemėlapyje.

Perkelti pele per norėdami pamatyti stoties vardą.

Tada spustelėkite, norėdami matyti oro stebėjimo ir prognozės.

Norėdami pakeisti žemėlapį: spustelėkite ant žalios mygtukų su juodo kryžiaus žemyn,; žalią mygtuką su brūkšneliu, jei norite nutolinti; arba žalių rodyklių gretimoms žemėlapius.


METAR-TAF: